Latest Weather Observations for Double Island Point

IDQ60901

Issued at 4:11 am EST Sunday 16 December 2018 (issued every 10 minutes, with the page automatically refreshed every 10 minutes)

About weather observations | Map of Brisbane area stations | Latest observations for Brisbane area | Other Formats
Station Details ID: 040068 Name: DOUBLE ISLAND POINT LIGHTHOUSE Lat: -25.93 Lon: 153.19 Height: 95.64 m
Data from the previous 72 hours. | See also: Recent months at Double Island Point
Date/Time
EST
Temp
°C
App
Temp
°C
Dew
Point
°C
Rel
Hum
%
Delta-T
°C
Wind Press
QNH
hPa
Press
MSL
hPa
Rain since
9am
mm
Dir  Spd
km/h
Gust
km/h
Spd
kts
Gust
kts
16/04:00am 24.1 25.3 23.8 98 0.2 E 24 26 13 14 1008.3 1007.8 0.8
16/03:30am 24.1 25.2 23.6 97 0.3 ENE 24 30 13 16 1008.3 1007.8 0.8
16/03:00am 24.2 27.0 23.7 97 0.3 NE 15 20 8 11 1008.3 1007.8 0.8
16/02:30am 24.1 24.8 23.6 97 0.3 NNE 26 28 14 15 1008.5 1008.0 0.2
16/02:00am 24.1 26.9 23.6 97 0.3 NE 15 20 8 11 1008.3 1007.8 0.2
16/01:30am 24.1 25.9 23.6 97 0.3 ENE 20 26 11 14 1008.5 1008.0 0.2
16/01:00am 24.1 26.1 23.6 97 0.3 ENE 19 24 10 13 1008.6 1008.1 0.2
16/12:30am 24.1 26.0 23.4 96 0.5 ENE 19 24 10 13 1008.8 1008.3 0.2
16/12:00am 24.1 26.8 23.4 96 0.5 NE 15 22 8 12 1009.3 1008.8 0.2
 
Date/Time
EST
Temp
°C
App
Temp
°C
Dew
Point
°C
Rel
Hum
%
Delta-T
°C
Wind Press
QNH
hPa
Press
MSL
hPa
Rain since
9am
mm
Dir  Spd
km/h
Gust
km/h
Spd
kts
Gust
kts
15/11:30pm 24.0 25.6 23.3 96 0.5 NE 20 24 11 13 1009.3 1008.8 0.2
15/11:00pm 24.0 26.2 23.3 96 0.5 ENE 17 20 9 11 1009.9 1009.4 0.2
15/10:30pm 23.9 25.4 23.0 95 0.6 ENE 20 26 11 14 1009.6 1009.1 0.2
15/10:00pm 24.2 26.4 23.3 95 0.6 NE 17 20 9 11 1009.7 1009.2 0.2
15/09:30pm 24.2 27.6 23.3 95 0.6 NE 11 15 6 8 1010.2 1009.7 0.2
15/09:00pm 24.1 26.3 23.2 95 0.6 NE 17 24 9 13 1009.8 1009.3 0.2
15/08:30pm 24.1 25.8 23.1 94 0.7 NE 19 26 10 14 1009.5 1009.0 0.2
15/08:00pm 24.2 25.4 23.2 94 0.7 NNE 22 28 12 15 1009.5 1009.0 0.2
15/07:30pm 24.2 24.3 23.2 94 0.7 NNE 28 33 15 18 1009.1 1008.6 0.2
15/07:00pm 24.3 25.9 23.3 94 0.7 NE 20 32 11 17 1008.8 1008.3 0.2
15/06:30pm 24.3 25.1 23.1 93 0.8 NE 24 33 13 18 1008.1 1007.6 0.2
15/06:00pm 24.4 24.0 23.0 92 1.0 NNE 30 37 16 20 1008.7 1008.2 0.2
15/05:30pm 24.8 25.7 23.4 92 1.0 NE 24 33 13 18 1008.2 1007.7 0.2
15/05:00pm 24.7 25.4 22.9 90 1.2 NNE 24 33 13 18 1008.2 1007.7 0.2
15/04:30pm 25.2 26.8 23.3 89 1.3 NE 20 30 11 16 1007.6 1007.1 0.2
15/04:00pm 25.5 26.4 23.4 88 1.4 NNE 24 32 13 17 1007.4 1006.9 0.2
15/03:30pm 25.9 28.4 23.8 88 1.4 N 17 26 9 14 1007.2 1006.7 0.2
15/03:00pm 25.6 27.8 23.3 87 1.6 N 17 30 9 16 1007.5 1007.0 0.2
15/02:30pm 25.0 24.2 23.1 89 1.3 NNE 32 39 17 21 1007.4 1006.9 0.2
15/02:00pm 25.0 23.7 23.1 89 1.3 NNE 35 41 19 22 1007.6 1007.1 0.2
15/01:30pm 25.6 24.3 23.1 86 1.7 NNE 35 43 19 23 1007.7 1007.2 0.2
15/01:00pm 26.0 25.1 23.1 84 2.0 NNE 33 39 18 21 1008.2 1007.7 0.2
15/12:30pm 26.7 27.0 23.6 83 2.1 NNE 28 32 15 17 1008.3 1007.8 0.2
15/12:00pm 26.6 25.6 23.7 84 2.0 NNE 35 41 19 22 1008.8 1008.3 0.2
15/11:30am 25.6 25.2 23.1 86 1.7 NNE 30 35 16 19 1009.5 1009.0 0.2
15/11:00am 25.8 24.9 22.9 84 2.0 NNE 32 35 17 19 1009.6 1009.1 0.2
15/10:30am 26.5 27.1 23.4 83 2.1 NNE 26 37 14 20 1010.1 1009.6 0.2
15/10:00am 24.9 23.2 22.4 86 1.7 NNE 35 41 19 22 1009.5 1009.0 0.2
15/09:30am 24.8 22.1 22.7 88 1.4 NNE 41 48 22 26 1009.5 1009.0 0.2
15/09:00am 24.8 21.8 22.9 89 1.3 NNE 43 50 23 27 1009.4 1008.9 32.6
15/08:30am 24.8 21.9 23.0 90 1.2 NNE 43 54 23 29 1009.4 1008.9 32.6
15/08:00am 24.6 22.3 22.7 89 1.3 NNE 39 48 21 26 1009.3 1008.8 32.6
15/07:30am 24.1 23.2 22.9 93 0.8 NNE 32 39 17 21 1009.6 1009.1 32.6
15/07:00am 23.3 22.7 21.9 92 0.9 NE 28 39 15 21 1009.3 1008.8 32.6
15/06:30am 22.8 21.5 21.4 92 0.9 NE 30 46 16 25 1009.1 1008.6 32.6
15/06:18am 23.0 22.5 22.2 95 0.5 NE 28 46 15 25 1008.9 1008.4 32.6
15/06:00am 23.2 21.2 22.5 96 0.5 ENE 37 46 20 25 1008.7 1008.2 32.6
15/05:30am 23.2 21.9 22.5 96 0.5 ENE 33 44 18 24 1008.0 1007.5 32.6
15/05:00am 23.0 22.2 22.3 96 0.5 ENE 30 39 16 21 1007.9 1007.4 32.6
15/04:30am 22.8 21.5 22.1 96 0.5 ENE 32 39 17 21 1007.2 1006.7 32.6
15/04:00am 22.2 22.1 21.5 96 0.5 ENE 24 30 13 16 1007.0 1006.5 32.6
15/03:30am 21.7 22.4 21.2 97 0.3 NE 19 28 10 15 1006.7 1006.2 32.6
15/03:00am 21.3 22.9 20.8 97 0.3 NNE 13 22 7 12 1006.5 1006.0 32.6
15/02:30am 21.3 23.3 20.8 97 0.3 ENE 11 17 6 9 1006.4 1005.9 32.6
15/02:00am 21.1 23.4 20.6 97 0.3 NNW 9 13 5 7 1006.8 1006.3 32.4
15/01:30am 21.0 20.3 20.3 96 0.5 WNW 24 41 13 22 1007.1 1006.6 30.6
15/01:22am 21.3 20.4 20.6 96 0.5 NW 26 48 14 26 1007.4 1006.9 28.8
15/01:16am 23.0 25.3 22.7 98 0.2 N 15 43 8 23 1007.4 1006.9 27.6
15/01:00am 23.4 25.1 23.1 98 0.2 N 19 39 10 21 1006.6 1006.1 27.2
15/12:48am 23.5 25.1 23.2 98 0.2 N 20 43 11 23 1006.5 1006.0 26.0
15/12:30am 23.4 26.3 23.1 98 0.2 N 13 30 7 16 1006.8 1006.3 25.4
15/12:00am 23.4 22.9 22.9 97 0.3 NNE 30 39 16 21 1006.7 1006.2 23.2
 
Date/Time
EST
Temp
°C
App
Temp
°C
Dew
Point
°C
Rel
Hum
%
Delta-T
°C
Wind Press
QNH
hPa
Press
MSL
hPa
Rain since
9am
mm
Dir  Spd
km/h
Gust
km/h
Spd
kts
Gust
kts
14/11:30pm 23.7 21.7 23.2 97 0.3 NNE 39 48 21 26 1007.0 1006.5 21.6
14/11:00pm 23.9 21.9 23.2 96 0.5 NNE 39 46 21 25 1007.1 1006.6 20.8
14/10:30pm 24.1 23.3 23.4 96 0.5 NNE 33 39 18 21 1007.5 1007.0 20.8
14/10:00pm 24.1 21.8 23.4 96 0.5 NNE 41 50 22 27 1007.3 1006.8 20.8
14/09:30pm 24.1 22.1 23.2 95 0.6 NNE 39 46 21 25 1006.8 1006.3 20.8
14/09:00pm 23.9 20.9 23.2 96 0.5 NNE 44 52 24 28 1006.0 1005.5 20.8
14/08:30pm 24.0 21.2 23.1 95 0.6 NNE 43 52 23 28 1006.0 1005.5 20.8
14/08:00pm 23.9 21.8 23.0 95 0.6 NNE 39 44 21 24 1006.4 1005.9 20.8
14/07:30pm 24.1 26.3 23.2 95 0.6 N 17 30 9 16 1006.7 1006.2 20.8
14/07:00pm 23.8 27.3 22.8 94 0.7 N 9 15 5 8 1006.3 1005.8 20.8
14/06:30pm 23.9 27.4 22.9 94 0.7 N 9 17 5 9 1005.7 1005.2 20.8
14/06:00pm 23.8 23.4 23.0 95 0.5 N 30 56 16 30 1005.1 1004.6 20.8
14/05:41pm 24.2 24.3 23.3 95 0.6 N 28 50 15 27 1004.8 1004.3 20.8
14/05:30pm 24.2 26.0 23.2 94 0.7 N 19 37 10 20 1005.1 1004.6 20.8
14/05:01pm 24.0 23.2 23.1 95 0.6 N 32 50 17 27 1004.4 1003.9 20.8
14/05:00pm 23.9 22.9 23.0 95 0.6 N 33 50 18 27 1004.4 1003.9 20.8
14/04:45pm 23.9 23.9 23.0 95 0.6 N 28 50 15 27 1004.2 1003.7 20.8
14/04:30pm 24.1 25.7 23.2 95 0.6 N 20 35 11 19 1004.1 1003.6 20.8
14/04:00pm 24.1 24.1 23.1 94 0.7 N 28 48 15 26 1003.8 1003.2 20.8
14/03:46pm 24.1 22.0 23.1 94 0.7 NNE 39 57 21 31 1003.8 1003.2 20.8
14/03:30pm 24.2 21.1 23.0 93 0.8 NNE 44 54 24 29 1003.9 1003.3 20.8
14/03:00pm 24.0 23.6 23.1 95 0.6 NNE 30 37 16 20 1004.5 1004.0 20.8
14/02:30pm 23.9 25.5 23.2 96 0.5 NNE 20 33 11 18 1004.8 1004.3 20.8
14/02:00pm 23.8 27.0 23.1 96 0.5 N 11 28 6 15 1005.0 1004.5 20.8
14/01:30pm 23.3 24.9 22.8 97 0.3 N 19 30 10 16 1005.1 1004.6 20.6
14/01:00pm 23.2 24.5 22.7 97 0.3 N 20 39 11 21 1005.2 1004.7 16.2
14/12:30pm 22.4 24.8 21.6 95 0.5 N 11 17 6 9 1005.4 1004.9 10.8
14/12:00pm 23.4 26.5 22.9 97 0.3 NNW 11 26 6 14 1005.9 1005.4 7.0
14/11:30am 24.1 23.4 23.6 97 0.3 NNE 33 43 18 23 1005.8 1005.3 5.0
14/11:00am 24.3 24.2 23.6 96 0.5 NNE 30 41 16 22 1006.2 1005.7 2.0
14/10:30am 24.2 25.1 23.3 95 0.6 NNE 24 37 13 20 1006.2 1005.7 1.4
14/10:00am 24.5 26.5 23.6 95 0.6 N 19 30 10 16 1006.3 1005.8 0.2
14/09:30am 24.8 27.7 23.8 94 0.7 N 15 28 8 15 1006.5 1006.0 0.0
14/09:00am 24.8 27.9 23.6 93 0.8 N 13 30 7 16 1006.4 1005.9 1.4
14/08:30am 24.8 28.7 23.6 93 0.8 N 9 17 5 9 1006.6 1006.1 1.4
14/08:00am 24.4 27.1 23.4 94 0.7 N 15 26 8 14 1006.8 1006.3 1.4
14/07:30am 24.2 27.8 23.0 93 0.8 N 9 15 5 8 1006.7 1006.2 1.2
14/07:00am 24.3 28.5 23.1 93 0.8 N 6 13 3 7 1006.7 1006.2 1.2
14/06:30am 24.0 28.5 23.0 94 0.7 N 4 7 2 4 1006.6 1006.1 1.2
14/06:00am 23.6 27.4 22.4 93 0.8 N 6 9 3 5 1006.6 1006.1 1.2
14/05:30am 23.6 27.5 22.6 94 0.7 N 6 7 3 4 1006.2 1005.7 1.2
14/05:00am 23.5 27.4 22.5 94 0.7 N 6 7 3 4 1005.9 1005.4 1.2
14/04:30am 23.4 24.2 22.4 94 0.7 NNW 22 28 12 15 1006.1 1005.6 1.0
14/04:00am 23.8 26.3 22.4 92 0.9 N 13 22 7 12 1006.0 1005.5 0.6
14/03:30am 23.8 27.8 22.1 90 1.1 ENE 4 7 2 4 1005.8 1005.3 0.0
14/03:00am 23.8 27.4 22.1 90 1.1 ENE 6 9 3 5 1005.6 1005.1 0.0
14/02:30am 23.8 27.4 22.1 90 1.1 ENE 6 9 3 5 1005.5 1005.0 0.0
14/02:00am 23.8 27.4 22.1 90 1.1 N 6 11 3 6 1005.4 1004.9 0.0
14/01:30am 23.7 25.7 21.6 88 1.4 N 13 20 7 11 1006.3 1005.8 0.0
14/01:00am 23.6 26.8 21.7 89 1.3 NE 7 11 4 6 1005.4 1004.9 0.0
14/12:30am 23.5 26.6 21.4 88 1.4 NNW 7 13 4 7 1005.8 1005.3 0.0
14/12:00am 23.5 26.7 21.6 89 1.3 NNE 7 11 4 6 1006.5 1006.0 0.0
 
Date/Time
EST
Temp
°C
App
Temp
°C
Dew
Point
°C
Rel
Hum
%
Delta-T
°C
Wind Press
QNH
hPa
Press
MSL
hPa
Rain since
9am
mm
Dir  Spd
km/h
Gust
km/h
Spd
kts
Gust
kts
13/11:30pm 23.5 26.6 21.4 88 1.4 NNE 7 9 4 5 1007.0 1006.5 0.0
13/11:00pm 23.5 26.2 21.4 88 1.4 NE 9 11 5 6 1007.1 1006.6 0.0
13/10:30pm 23.5 26.6 21.0 86 1.6 N 6 11 3 6 1007.0 1006.5 0.0
13/10:00pm 23.8 26.5 21.3 86 1.7 N 9 15 5 8 1007.5 1007.0 0.0
13/09:30pm 23.9 26.8 21.0 84 1.9 N 7 13 4 7 1007.8 1007.3 0.0
13/09:00pm 24.0 26.8 20.9 83 2.0 SSE 7 11 4 6 1007.9 1007.4 0.0
13/08:30pm 24.1 26.4 20.6 81 2.3 NNW 9 22 5 12 1007.3 1006.8 0.0
13/08:00pm 24.1 26.4 20.6 81 2.3 N 9 15 5 8 1007.5 1007.0 0.0
13/07:30pm 24.1 26.4 20.6 81 2.3 NE 9 13 5 7 1007.6 1007.1 0.0
13/07:00pm 24.1 26.5 20.8 82 2.2 N 9 17 5 9 1007.2 1006.7 0.0
13/06:30pm 24.3 25.4 21.2 83 2.0 NNW 17 35 9 19 1006.9 1006.4 0.0
13/06:00pm 24.4 24.0 20.9 81 2.3 N 24 44 13 24 1006.1 1005.6 0.0
13/05:35pm 24.4 19.6 20.5 79 2.6 NNE 46 65 25 35 1005.1 1004.6 0.0
13/05:30pm 24.4 20.0 20.5 79 2.6 NNE 44 57 24 31 1005.3 1004.8 0.0
13/05:00pm 24.6 19.6 20.1 76 2.9 NNE 46 54 25 29 1005.2 1004.7 0.0
13/04:30pm 24.9 20.3 19.7 73 3.4 NNE 43 50 23 27 1005.0 1004.5 0.0
13/04:00pm 25.3 21.5 19.7 71 3.6 NNE 39 46 21 25 1005.9 1005.4 0.0
13/03:30pm 25.6 22.9 19.7 70 3.8 NNE 33 43 18 23 1006.4 1005.9 0.0
13/03:21pm 25.5 23.5 19.9 71 3.6 N 30 48 16 26 1006.4 1005.9 0.0
13/03:00pm 25.7 22.9 20.3 72 3.5 NNE 35 50 19 27 1006.3 1005.8 0.0
13/02:36pm 26.2 23.7 20.8 72 3.6 NNE 35 54 19 29 1006.6 1006.1 0.0
13/02:30pm 26.1 23.0 20.4 71 3.7 NNE 37 50 20 27 1006.8 1006.3 0.0
13/02:00pm 26.0 22.1 19.6 68 4.2 NNE 39 48 21 26 1007.1 1006.6 0.0
13/01:30pm 26.6 23.1 19.7 66 4.5 NNE 37 43 20 23 1007.9 1007.4 0.0
13/01:00pm 27.9 26.4 20.2 63 5.1 NNE 28 33 15 18 1008.7 1008.2 0.0
13/12:30pm 27.9 27.5 20.2 63 5.1 NNE 22 32 12 17 1009.2 1008.7 0.0
13/12:00pm 28.5 30.5 20.0 60 5.6 N 9 22 5 12 1009.6 1009.1 0.0
13/11:30am 28.7 30.8 20.2 60 5.6 N 9 15 5 8 1009.7 1009.2 0.0
13/11:00am 28.6 31.1 20.3 60 5.5 N 7 15 4 8 1009.7 1009.2 0.0
13/10:30am 27.7 30.2 20.3 64 4.9 N 7 13 4 7 1010.2 1009.7 0.0
13/10:00am 28.3 30.7 20.8 63 5.0 N 9 13 5 7 1010.6 1010.1 0.0
13/09:30am 28.0 30.3 21.3 67 4.5 N 11 19 6 10 1010.8 1010.3 0.0
13/09:00am 26.5 28.6 20.1 68 4.2 N 9 13 5 7 1010.8 1010.3 0.0
13/08:30am 26.3 28.9 20.4 70 3.9 N 7 9 4 5 1010.8 1010.3 0.0
13/08:00am 25.1 27.3 19.7 72 3.5 N 7 11 4 6 1010.9 1010.4 0.0
13/07:30am 23.8 26.2 20.1 80 2.4 N 7 11 4 6 1011.1 1010.6 0.0
13/07:00am 23.4 25.3 19.8 80 2.3 N 9 11 5 6 1010.5 1010.0 0.0
13/06:30am 23.2 25.9 20.3 84 1.9 N 6 7 3 4 1010.0 1009.5 0.0
13/06:00am 22.3 24.9 20.0 87 1.5 N 6 9 3 5 1009.9 1009.4 0.0
13/05:30am 21.6 23.3 19.3 87 1.5 N 9 11 5 6 1009.8 1009.3 0.0
13/05:00am 21.6 22.9 19.2 86 1.5 N 11 13 6 7 1009.9 1009.4 0.0
13/04:30am 21.7 23.3 19.1 85 1.7 N 9 13 5 7 1009.6 1009.1 0.0

Latest Capital City Observations: Canberra | Sydney | Melbourne | Brisbane | Adelaide | Perth | Hobart | Darwin

Other Formats:

Comma delimited format used in spreadsheet applications
http://www.bom.gov.au/fwo/IDQ60901/IDQ60901.94584.axf

JavaScript Object Notation format (JSON) in row-major order
http://www.bom.gov.au/fwo/IDQ60901/IDQ60901.94584.json